W. O. Watson — WDE2805 — position and weather

sailwx.info

Track history (hours):
 
Tides and Currents Weather Stations Pressure Air Temp Water Temp Dewpoint Dewpoint Depression Visibility Wind Speed Wind Dir Waves Ship Positions

W. O. Watson

More information available from US FCC via Universal Licensing System and Coast Guard Vessel Documentation Center.

Last reported at 2014-Jul-30 14:33 UTC. Time now 2014-Jul-30 15:12 UTC.
Position N 29°44' W 095°01'.

Length 32 m; draft 2.8 m.

MMSI: 367329860.

Date/timePositionNaut miles runAvg speedWind from/ knotsBaromVisibWave heightAir tempDewpointWater temp
2014-Jul-30 14:33N 29°44' W 095°01'0 0.0
2014-Jul-30 13:33N 29°44' W 095°01'0 0.0
2014-Jul-30 12:33N 29°44' W 095°01'0 0.0
2014-Jul-30 11:33N 29°44' W 095°01'0 0.0
2014-Jul-30 10:33N 29°44' W 095°01'0 0.0
2014-Jul-30 09:33N 29°44' W 095°01'0 0.0
2014-Jul-30 08:33N 29°44' W 095°01'0 0.1
2014-Jul-30 07:33N 29°44' W 095°01'0 0.0
2014-Jul-30 06:33N 29°44' W 095°01'0 0.0
2014-Jul-30 05:33N 29°44' W 095°01'0 0.0
2014-Jul-30 04:33N 29°44' W 095°01'0 0.0
2014-Jul-30 03:33N 29°44' W 095°01'0 0.0
2014-Jul-30 02:33N 29°44' W 095°01'0 0.0
2014-Jul-30 01:33N 29°44' W 095°01'0 0.0
2014-Jul-30 00:33N 29°44' W 095°01'1 0.5
2014-Jul-29 23:33N 29°43' W 095°01'3 2.8
2014-Jul-29 22:33N 29°41' W 094°59'6 5.9
2014-Jul-29 21:33N 29°36' W 094°57'6 5.7
2014-Jul-29 20:33N 29°31' W 094°53'6 6.0
2014-Jul-29 19:33N 29°26' W 094°50'7 1.2
2014-Jul-29 13:28N 29°19' W 094°49'0 0.0
2014-Jul-29 12:10N 29°19' W 094°49'0 0.0
2014-Jul-29 11:08N 29°19' W 094°49'0 0.0
2014-Jul-29 10:33N 29°19' W 094°49'0 0.0
2014-Jul-29 09:30N 29°19' W 094°49'0 0.0
2014-Jul-29 08:33N 29°19' W 094°49'0 0.0
2014-Jul-29 07:33N 29°19' W 094°49'0 0.0
2014-Jul-29 06:33N 29°19' W 094°49'0 0.0
2014-Jul-29 05:33N 29°19' W 094°49'0 0.0
2014-Jul-29 04:33N 29°19' W 094°49'0 0.0
2014-Jul-29 03:33N 29°19' W 094°49'7 0.5
2014-Jul-28 14:27N 29°24' W 094°45'0 0.0
2014-Jul-28 13:08N 29°24' W 094°45'0 0.1
2014-Jul-28 12:33N 29°24' W 094°45'0 0.0
2014-Jul-28 11:28N 29°24' W 094°45'0 0.0
2014-Jul-28 09:22N 29°24' W 094°45'0 0.0
2014-Jul-28 08:32N 29°24' W 094°45'0 0.0
2014-Jul-28 07:27N 29°24' W 094°45'2 0.1
2014-Jul-27 15:31N 29°23' W 094°46'7 3.7
2014-Jul-27 13:32N 29°29' W 094°52'4 4.1
2014-Jul-27 12:33N 29°32' W 094°54'4 4.4
2014-Jul-27 11:33N 29°36' W 094°57'4 4.5
2014-Jul-27 10:33N 29°40' W 094°59'5 4.7
2014-Jul-27 09:33N 29°44' W 095°02'4 3.7
2014-Jul-27 08:33N 29°45' W 095°06'4 3.9
2014-Jul-27 07:33N 29°45' W 095°10'2 2.4
2014-Jul-27 06:33N 29°44' W 095°13'0 0.0
2014-Jul-27 05:33N 29°44' W 095°13'0 0.1
2014-Jul-27 04:33N 29°44' W 095°13'0 0.1
2014-Jul-27 03:33N 29°44' W 095°13'0 0.0
2014-Jul-27 02:33N 29°44' W 095°13'0 0.0
2014-Jul-27 01:33N 29°44' W 095°13'0 0.0
2014-Jul-27 00:33N 29°44' W 095°13'0 0.0
2014-Jul-26 23:33N 29°44' W 095°13'0 0.0
2014-Jul-26 22:33N 29°44' W 095°13'0 0.0
2014-Jul-26 21:33N 29°44' W 095°13'0 0.0
2014-Jul-26 20:33N 29°44' W 095°13'0 0.0
2014-Jul-26 19:33N 29°44' W 095°13'0 0.0
2014-Jul-26 18:33N 29°44' W 095°13'0 0.0
2014-Jul-26 17:33N 29°44' W 095°13'0 0.0
2014-Jul-26 16:33N 29°44' W 095°13'0 0.0
2014-Jul-26 15:33N 29°44' W 095°13'0 0.0
2014-Jul-26 14:33N 29°44' W 095°13'0 0.0
2014-Jul-26 13:33N 29°44' W 095°13'0 0.0
2014-Jul-26 12:33N 29°44' W 095°13'0 0.0
2014-Jul-26 11:33N 29°44' W 095°13'0 0.0
2014-Jul-26 10:33N 29°44' W 095°13'24122411.7
2014-Jul-26 09:33N 69°55' W 095°13'24122412.4
2014-Jul-26 08:33N 29°44' W 095°13'0 0.0
2014-Jul-26 07:33N 29°44' W 095°13'0 0.0
2014-Jul-26 06:33N 29°44' W 095°13'0 0.0
2014-Jul-26 05:33N 29°44' W 095°13'0 0.0
2014-Jul-26 04:33N 29°44' W 095°13'0 0.0
2014-Jul-26 03:33N 29°44' W 095°13'0 0.0
2014-Jul-26 02:33N 29°44' W 095°13'0 0.0
2014-Jul-26 01:33N 29°44' W 095°13'0 0.0
2014-Jul-26 00:33N 29°44' W 095°13'0 0.0
2014-Jul-25 23:33N 29°44' W 095°13'0 0.0
2014-Jul-25 22:33N 29°44' W 095°13'0 0.1
2014-Jul-25 21:33N 29°44' W 095°13'1 0.6
2014-Jul-25 20:33N 29°44' W 095°12'4 3.7
2014-Jul-25 19:33N 29°44' W 095°08'4 3.8
2014-Jul-25 18:33N 29°45' W 095°04'1 1.4
2014-Jul-25 17:33N 29°44' W 095°03'0 0.0
2014-Jul-25 16:33N 29°44' W 095°03'0 0.0
2014-Jul-25 15:33N 29°44' W 095°03'0 0.0
2014-Jul-25 14:33N 29°44' W 095°03'0 0.0
2014-Jul-25 13:33N 29°44' W 095°03'0 0.0
2014-Jul-25 12:33N 29°44' W 095°03'0 0.0
2014-Jul-25 11:33N 29°44' W 095°03'0 0.0
2014-Jul-25 10:33N 29°44' W 095°03'0 0.0
2014-Jul-25 09:33N 29°44' W 095°03'0 0.0
2014-Jul-25 08:33N 29°44' W 095°03'0 0.0
2014-Jul-25 07:33N 29°44' W 095°03'0 0.0
2014-Jul-25 06:33N 29°44' W 095°03'0 0.0
2014-Jul-25 05:33N 29°44' W 095°03'0 0.0
2014-Jul-25 04:33N 29°44' W 095°03'0 0.0
2014-Jul-25 03:33N 29°44' W 095°03'0 0.0
2014-Jul-25 02:33N 29°44' W 095°03'0 0.0
2014-Jul-25 01:33N 29°44' W 095°03'0 0.0
2014-Jul-25 00:33N 29°44' W 095°03'0 0.0
2014-Jul-24 23:33N 29°44' W 095°03'0 0.0
2014-Jul-24 22:33N 29°44' W 095°03'0 0.0
2014-Jul-24 21:33N 29°44' W 095°03'0 0.0
2014-Jul-24 20:33N 29°44' W 095°03'0 0.0
2014-Jul-24 19:33N 29°44' W 095°03'1 1.3
2014-Jul-24 18:33N 29°45' W 095°04'2 1.9
2014-Jul-24 17:33N 29°47' W 095°05'0 0.0
2014-Jul-24 16:30N 29°47' W 095°05'0 0.0
2014-Jul-24 15:33N 29°47' W 095°05'0 0.0
2014-Jul-24 14:33N 29°47' W 095°05'0 0.0
2014-Jul-24 13:31N 29°47' W 095°05'0 0.0
2014-Jul-24 12:32N 29°47' W 095°05'0 0.0
2014-Jul-24 11:33N 29°47' W 095°05'0 0.0
2014-Jul-24 10:33N 29°47' W 095°05'0 0.1
2014-Jul-24 09:33N 29°47' W 095°05'0 0.0
2014-Jul-24 08:33N 29°47' W 095°05'0 0.0
2014-Jul-24 07:33N 29°47' W 095°05'0 0.0
2014-Jul-24 06:33N 29°47' W 095°05'0 0.0
2014-Jul-24 05:33N 29°47' W 095°05'0 0.0
2014-Jul-24 04:33N 29°47' W 095°05'0 0.0
2014-Jul-24 03:33N 29°47' W 095°05'0 0.0
2014-Jul-24 02:33N 29°47' W 095°05'0 0.0
2014-Jul-24 01:33N 29°47' W 095°05'0 0.4
2014-Jul-24 00:33N 29°46' W 095°05'1 0.7
2014-Jul-23 23:34N 29°46' W 095°05'0 0.1
2014-Jul-23 22:33N 29°46' W 095°05'0 0.0
2014-Jul-23 21:33N 29°46' W 095°05'0 0.0
2014-Jul-23 20:33N 29°46' W 095°05'1 0.7
2014-Jul-23 19:33N 29°46' W 095°06'0 0.0
2014-Jul-23 18:33N 29°46' W 095°06'0 0.0
2014-Jul-23 17:33N 29°46' W 095°06'0 0.0
2014-Jul-23 16:33N 29°46' W 095°06'1 0.7
2014-Jul-23 15:33N 29°46' W 095°05'0 0.1
2014-Jul-23 14:33N 29°46' W 095°05'0 0.1
2014-Jul-23 13:33N 29°46' W 095°05'0 0.0
2014-Jul-23 12:33N 29°46' W 095°05'0 0.0
2014-Jul-23 11:33N 29°46' W 095°05'0 0.0
2014-Jul-23 10:33N 29°46' W 095°05'0 0.0
2014-Jul-23 09:33N 29°46' W 095°05'0 0.0
2014-Jul-23 08:33N 29°46' W 095°05'0 0.0
2014-Jul-23 07:33N 29°46' W 095°05'0 0.0
2014-Jul-23 06:33N 29°46' W 095°05'0 0.0
2014-Jul-23 05:33N 29°46' W 095°05'0 0.0
2014-Jul-23 04:33N 29°46' W 095°05'0 0.0
2014-Jul-23 03:33N 29°46' W 095°05'0 0.0
2014-Jul-23 02:33N 29°46' W 095°05'0 0.0
2014-Jul-23 01:33N 29°46' W 095°05'0 0.0
2014-Jul-23 00:33N 29°46' W 095°05'0 0.0
2014-Jul-22 23:33N 29°46' W 095°05'0 0.0
2014-Jul-22 22:33N 29°46' W 095°05'0 0.0
2014-Jul-22 21:33N 29°46' W 095°05'0 0.0
2014-Jul-22 20:33N 29°46' W 095°05'0 0.0
2014-Jul-22 19:33N 29°46' W 095°05'0 0.0
2014-Jul-22 18:33N 29°46' W 095°05'3 3.0
2014-Jul-22 17:33N 29°44' W 095°08'0 0.4
2014-Jul-22 16:33N 29°44' W 095°08'0 0.0
2014-Jul-22 15:33N 29°44' W 095°08'0 0.0
2014-Jul-22 14:33N 29°44' W 095°08'0 0.0
2014-Jul-22 13:31N 29°44' W 095°08'0 0.1
2014-Jul-22 12:33N 29°44' W 095°08'0 0.0
2014-Jul-22 11:33N 29°44' W 095°08'0 0.1
2014-Jul-22 10:33N 29°44' W 095°08'0 0.1
2014-Jul-22 09:33N 29°44' W 095°08'0 0.0
2014-Jul-22 08:33N 29°44' W 095°08'0 0.0
2014-Jul-22 07:33N 29°44' W 095°08'0 0.0
2014-Jul-22 06:33N 29°44' W 095°08'0 0.0
2014-Jul-22 05:33N 29°44' W 095°08'0 0.0
2014-Jul-22 04:33N 29°44' W 095°08'0 0.0
2014-Jul-22 03:33N 29°44' W 095°08'0 0.1
2014-Jul-22 02:33N 29°44' W 095°08'0 0.0
2014-Jul-22 01:33N 29°44' W 095°08'0 0.0
2014-Jul-22 00:33N 29°44' W 095°08'1 1.1
2014-Jul-21 23:33N 29°44' W 095°07'4 4.2
2014-Jul-21 22:33N 29°47' W 095°04'0 0.0
2014-Jul-21 21:33N 29°47' W 095°04'0 0.1
2014-Jul-21 20:33N 29°47' W 095°04'0 0.0
2014-Jul-21 20:18N 29°47' W 095°04'0 0.0
2014-Jul-21 19:33N 29°47' W 095°04'0 0.0
2014-Jul-21 18:33N 29°47' W 095°04'0 0.0
2014-Jul-21 17:33N 29°47' W 095°04'0 0.0
2014-Jul-21 16:33N 29°47' W 095°04'0 0.0
2014-Jul-21 15:33N 29°47' W 095°04'0 0.0
2014-Jul-21 14:33N 29°47' W 095°04'0 0.0
2014-Jul-21 13:33N 29°47' W 095°04'0 0.0
2014-Jul-21 12:33N 29°47' W 095°04'0 0.0
2014-Jul-21 11:33N 29°47' W 095°04'0 0.0
2014-Jul-21 10:33N 29°47' W 095°04'0 0.0
2014-Jul-21 09:33N 29°47' W 095°04'0 0.0
2014-Jul-21 08:33N 29°47' W 095°04'0 0.0
2014-Jul-21 07:33N 29°47' W 095°04'0 0.0
2014-Jul-21 06:33N 29°47' W 095°04'1 1.0
2014-Jul-21 05:33N 29°47' W 095°05'2 2.2
2014-Jul-21 04:33N 29°45' W 095°06'0 0.0
2014-Jul-21 03:33N 29°45' W 095°06'0 0.0
2014-Jul-21 02:33N 29°45' W 095°06'0 0.0
2014-Jul-21 01:33N 29°45' W 095°06'0 0.0
2014-Jul-21 00:33N 29°45' W 095°06'0 0.0
2014-Jul-20 23:34N 29°45' W 095°06'3 3.1
2014-Jul-20 22:34N 29°47' W 095°04'1 0.7
2014-Jul-20 21:33N 29°47' W 095°05'1 0.8
2014-Jul-20 20:33N 29°47' W 095°04'0 0.0
2014-Jul-20 19:33N 29°47' W 095°04'0 0.0
2014-Jul-20 18:33N 29°47' W 095°04'0 0.0
2014-Jul-20 17:33N 29°47' W 095°04'0 0.0
2014-Jul-20 16:33N 29°47' W 095°04'0 0.0
2014-Jul-20 15:33N 29°47' W 095°04'  
Track history (hours):
 
Tides and Currents Weather Stations Pressure Air Temp Water Temp Dewpoint Dewpoint Depression Visibility Wind Speed Wind Dir Waves Ship Positions

W. O. Watson

More information available from US FCC via Universal Licensing System and Coast Guard Vessel Documentation Center.

Last reported at 2014-Jul-30 14:33 UTC. Time now 2014-Jul-30 15:12 UTC.
Position N 29°44' W 095°01'.

Length 32 m; draft 2.8 m.

MMSI: 367329860.

Date/timePositionNaut miles runAvg speedWind from/ knotsBaromVisibWave heightAir tempDewpointWater temp
2014-Jul-30 14:33N 29°44' W 095°01'0 0.0
2014-Jul-30 13:33N 29°44' W 095°01'0 0.0
2014-Jul-30 12:33N 29°44' W 095°01'0 0.0
2014-Jul-30 11:33N 29°44' W 095°01'0 0.0
2014-Jul-30 10:33N 29°44' W 095°01'0 0.0
2014-Jul-30 09:33N 29°44' W 095°01'0 0.0
2014-Jul-30 08:33N 29°44' W 095°01'0 0.1
2014-Jul-30 07:33N 29°44' W 095°01'0 0.0
2014-Jul-30 06:33N 29°44' W 095°01'0 0.0
2014-Jul-30 05:33N 29°44' W 095°01'0 0.0
2014-Jul-30 04:33N 29°44' W 095°01'0 0.0
2014-Jul-30 03:33N 29°44' W 095°01'0 0.0
2014-Jul-30 02:33N 29°44' W 095°01'0 0.0
2014-Jul-30 01:33N 29°44' W 095°01'0 0.0
2014-Jul-30 00:33N 29°44' W 095°01'1 0.5
2014-Jul-29 23:33N 29°43' W 095°01'3 2.8
2014-Jul-29 22:33N 29°41' W 094°59'6 5.9
2014-Jul-29 21:33N 29°36' W 094°57'6 5.7
2014-Jul-29 20:33N 29°31' W 094°53'6 6.0
2014-Jul-29 19:33N 29°26' W 094°50'7 1.2
2014-Jul-29 13:28N 29°19' W 094°49'0 0.0
2014-Jul-29 12:10N 29°19' W 094°49'0 0.0
2014-Jul-29 11:08N 29°19' W 094°49'0 0.0
2014-Jul-29 10:33N 29°19' W 094°49'0 0.0
2014-Jul-29 09:30N 29°19' W 094°49'0 0.0
2014-Jul-29 08:33N 29°19' W 094°49'0 0.0
2014-Jul-29 07:33N 29°19' W 094°49'0 0.0
2014-Jul-29 06:33N 29°19' W 094°49'0 0.0
2014-Jul-29 05:33N 29°19' W 094°49'0 0.0
2014-Jul-29 04:33N 29°19' W 094°49'0 0.0
2014-Jul-29 03:33N 29°19' W 094°49'7 0.5
2014-Jul-28 14:27N 29°24' W 094°45'0 0.0
2014-Jul-28 13:08N 29°24' W 094°45'0 0.1
2014-Jul-28 12:33N 29°24' W 094°45'0 0.0
2014-Jul-28 11:28N 29°24' W 094°45'0 0.0
2014-Jul-28 09:22N 29°24' W 094°45'0 0.0
2014-Jul-28 08:32N 29°24' W 094°45'0 0.0
2014-Jul-28 07:27N 29°24' W 094°45'2 0.1
2014-Jul-27 15:31N 29°23' W 094°46'7 3.7
2014-Jul-27 13:32N 29°29' W 094°52'4 4.1
2014-Jul-27 12:33N 29°32' W 094°54'4 4.4
2014-Jul-27 11:33N 29°36' W 094°57'4 4.5
2014-Jul-27 10:33N 29°40' W 094°59'5 4.7
2014-Jul-27 09:33N 29°44' W 095°02'4 3.7
2014-Jul-27 08:33N 29°45' W 095°06'4 3.9
2014-Jul-27 07:33N 29°45' W 095°10'2 2.4
2014-Jul-27 06:33N 29°44' W 095°13'0 0.0
2014-Jul-27 05:33N 29°44' W 095°13'0 0.1
2014-Jul-27 04:33N 29°44' W 095°13'0 0.1
2014-Jul-27 03:33N 29°44' W 095°13'0 0.0
2014-Jul-27 02:33N 29°44' W 095°13'0 0.0
2014-Jul-27 01:33N 29°44' W 095°13'0 0.0
2014-Jul-27 00:33N 29°44' W 095°13'0 0.0
2014-Jul-26 23:33N 29°44' W 095°13'0 0.0
2014-Jul-26 22:33N 29°44' W 095°13'0 0.0
2014-Jul-26 21:33N 29°44' W 095°13'0 0.0
2014-Jul-26 20:33N 29°44' W 095°13'0 0.0
2014-Jul-26 19:33N 29°44' W 095°13'0 0.0
2014-Jul-26 18:33N 29°44' W 095°13'0 0.0
2014-Jul-26 17:33N 29°44' W 095°13'0 0.0
2014-Jul-26 16:33N 29°44' W 095°13'0 0.0
2014-Jul-26 15:33N 29°44' W 095°13'0 0.0
2014-Jul-26 14:33N 29°44' W 095°13'0 0.0
2014-Jul-26 13:33N 29°44' W 095°13'0 0.0
2014-Jul-26 12:33N 29°44' W 095°13'0 0.0
2014-Jul-26 11:33N 29°44' W 095°13'0 0.0
2014-Jul-26 10:33N 29°44' W 095°13'24122411.7
2014-Jul-26 09:33N 69°55' W 095°13'24122412.4
2014-Jul-26 08:33N 29°44' W 095°13'0 0.0
2014-Jul-26 07:33N 29°44' W 095°13'0 0.0
2014-Jul-26 06:33N 29°44' W 095°13'0 0.0
2014-Jul-26 05:33N 29°44' W 095°13'0 0.0
2014-Jul-26 04:33N 29°44' W 095°13'0 0.0
2014-Jul-26 03:33N 29°44' W 095°13'0 0.0
2014-Jul-26 02:33N 29°44' W 095°13'0 0.0
2014-Jul-26 01:33N 29°44' W 095°13'0 0.0
2014-Jul-26 00:33N 29°44' W 095°13'0 0.0
2014-Jul-25 23:33N 29°44' W 095°13'0 0.0
2014-Jul-25 22:33N 29°44' W 095°13'0 0.1
2014-Jul-25 21:33N 29°44' W 095°13'1 0.6
2014-Jul-25 20:33N 29°44' W 095°12'4 3.7
2014-Jul-25 19:33N 29°44' W 095°08'4 3.8
2014-Jul-25 18:33N 29°45' W 095°04'1 1.4
2014-Jul-25 17:33N 29°44' W 095°03'0 0.0
2014-Jul-25 16:33N 29°44' W 095°03'0 0.0
2014-Jul-25 15:33N 29°44' W 095°03'0 0.0
2014-Jul-25 14:33N 29°44' W 095°03'0 0.0
2014-Jul-25 13:33N 29°44' W 095°03'0 0.0
2014-Jul-25 12:33N 29°44' W 095°03'0 0.0
2014-Jul-25 11:33N 29°44' W 095°03'0 0.0
2014-Jul-25 10:33N 29°44' W 095°03'0 0.0
2014-Jul-25 09:33N 29°44' W 095°03'0 0.0
2014-Jul-25 08:33N 29°44' W 095°03'0 0.0
2014-Jul-25 07:33N 29°44' W 095°03'0 0.0
2014-Jul-25 06:33N 29°44' W 095°03'0 0.0
2014-Jul-25 05:33N 29°44' W 095°03'0 0.0
2014-Jul-25 04:33N 29°44' W 095°03'0 0.0
2014-Jul-25 03:33N 29°44' W 095°03'0 0.0
2014-Jul-25 02:33N 29°44' W 095°03'0 0.0
2014-Jul-25 01:33N 29°44' W 095°03'0 0.0
2014-Jul-25 00:33N 29°44' W 095°03'0 0.0
2014-Jul-24 23:33N 29°44' W 095°03'0 0.0
2014-Jul-24 22:33N 29°44' W 095°03'0 0.0
2014-Jul-24 21:33N 29°44' W 095°03'0 0.0
2014-Jul-24 20:33N 29°44' W 095°03'0 0.0
2014-Jul-24 19:33N 29°44' W 095°03'1 1.3
2014-Jul-24 18:33N 29°45' W 095°04'2 1.9
2014-Jul-24 17:33N 29°47' W 095°05'0 0.0
2014-Jul-24 16:30N 29°47' W 095°05'0 0.0
2014-Jul-24 15:33N 29°47' W 095°05'0 0.0
2014-Jul-24 14:33N 29°47' W 095°05'0 0.0
2014-Jul-24 13:31N 29°47' W 095°05'0 0.0
2014-Jul-24 12:32N 29°47' W 095°05'0 0.0
2014-Jul-24 11:33N 29°47' W 095°05'0 0.0
2014-Jul-24 10:33N 29°47' W 095°05'0 0.1
2014-Jul-24 09:33N 29°47' W 095°05'0 0.0
2014-Jul-24 08:33N 29°47' W 095°05'0 0.0
2014-Jul-24 07:33N 29°47' W 095°05'0 0.0
2014-Jul-24 06:33N 29°47' W 095°05'0 0.0
2014-Jul-24 05:33N 29°47' W 095°05'0 0.0
2014-Jul-24 04:33N 29°47' W 095°05'0 0.0
2014-Jul-24 03:33N 29°47' W 095°05'0 0.0
2014-Jul-24 02:33N 29°47' W 095°05'0 0.0
2014-Jul-24 01:33N 29°47' W 095°05'0 0.4
2014-Jul-24 00:33N 29°46' W 095°05'1 0.7
2014-Jul-23 23:34N 29°46' W 095°05'0 0.1
2014-Jul-23 22:33N 29°46' W 095°05'0 0.0
2014-Jul-23 21:33N 29°46' W 095°05'0 0.0
2014-Jul-23 20:33N 29°46' W 095°05'1 0.7
2014-Jul-23 19:33N 29°46' W 095°06'0 0.0
2014-Jul-23 18:33N 29°46' W 095°06'0 0.0
2014-Jul-23 17:33N 29°46' W 095°06'0 0.0
2014-Jul-23 16:33N 29°46' W 095°06'1 0.7
2014-Jul-23 15:33N 29°46' W 095°05'0 0.1
2014-Jul-23 14:33N 29°46' W 095°05'0 0.1
2014-Jul-23 13:33N 29°46' W 095°05'0 0.0
2014-Jul-23 12:33N 29°46' W 095°05'0 0.0
2014-Jul-23 11:33N 29°46' W 095°05'0 0.0
2014-Jul-23 10:33N 29°46' W 095°05'0 0.0
2014-Jul-23 09:33N 29°46' W 095°05'0 0.0
2014-Jul-23 08:33N 29°46' W 095°05'0 0.0
2014-Jul-23 07:33N 29°46' W 095°05'0 0.0
2014-Jul-23 06:33N 29°46' W 095°05'0 0.0
2014-Jul-23 05:33N 29°46' W 095°05'0 0.0
2014-Jul-23 04:33N 29°46' W 095°05'0 0.0
2014-Jul-23 03:33N 29°46' W 095°05'0 0.0
2014-Jul-23 02:33N 29°46' W 095°05'0 0.0
2014-Jul-23 01:33N 29°46' W 095°05'0 0.0
2014-Jul-23 00:33N 29°46' W 095°05'0 0.0
2014-Jul-22 23:33N 29°46' W 095°05'0 0.0
2014-Jul-22 22:33N 29°46' W 095°05'0 0.0
2014-Jul-22 21:33N 29°46' W 095°05'0 0.0
2014-Jul-22 20:33N 29°46' W 095°05'0 0.0
2014-Jul-22 19:33N 29°46' W 095°05'0 0.0
2014-Jul-22 18:33N 29°46' W 095°05'3 3.0
2014-Jul-22 17:33N 29°44' W 095°08'0 0.4
2014-Jul-22 16:33N 29°44' W 095°08'0 0.0
2014-Jul-22 15:33N 29°44' W 095°08'0 0.0
2014-Jul-22 14:33N 29°44' W 095°08'0 0.0
2014-Jul-22 13:31N 29°44' W 095°08'0 0.1
2014-Jul-22 12:33N 29°44' W 095°08'0 0.0
2014-Jul-22 11:33N 29°44' W 095°08'0 0.1
2014-Jul-22 10:33N 29°44' W 095°08'0 0.1
2014-Jul-22 09:33N 29°44' W 095°08'0 0.0
2014-Jul-22 08:33N 29°44' W 095°08'0 0.0
2014-Jul-22 07:33N 29°44' W 095°08'0 0.0
2014-Jul-22 06:33N 29°44' W 095°08'0 0.0
2014-Jul-22 05:33N 29°44' W 095°08'0 0.0
2014-Jul-22 04:33N 29°44' W 095°08'0 0.0
2014-Jul-22 03:33N 29°44' W 095°08'0 0.1
2014-Jul-22 02:33N 29°44' W 095°08'0 0.0
2014-Jul-22 01:33N 29°44' W 095°08'0 0.0
2014-Jul-22 00:33N 29°44' W 095°08'1 1.1
2014-Jul-21 23:33N 29°44' W 095°07'4 4.2
2014-Jul-21 22:33N 29°47' W 095°04'0 0.0
2014-Jul-21 21:33N 29°47' W 095°04'0 0.1
2014-Jul-21 20:33N 29°47' W 095°04'0 0.0
2014-Jul-21 20:18N 29°47' W 095°04'0 0.0
2014-Jul-21 19:33N 29°47' W 095°04'0 0.0
2014-Jul-21 18:33N 29°47' W 095°04'0 0.0
2014-Jul-21 17:33N 29°47' W 095°04'0 0.0
2014-Jul-21 16:33N 29°47' W 095°04'0 0.0
2014-Jul-21 15:33N 29°47' W 095°04'0 0.0
2014-Jul-21 14:33N 29°47' W 095°04'0 0.0
2014-Jul-21 13:33N 29°47' W 095°04'0 0.0
2014-Jul-21 12:33N 29°47' W 095°04'0 0.0
2014-Jul-21 11:33N 29°47' W 095°04'0 0.0
2014-Jul-21 10:33N 29°47' W 095°04'0 0.0
2014-Jul-21 09:33N 29°47' W 095°04'0 0.0
2014-Jul-21 08:33N 29°47' W 095°04'0 0.0
2014-Jul-21 07:33N 29°47' W 095°04'0 0.0
2014-Jul-21 06:33N 29°47' W 095°04'1 1.0
2014-Jul-21 05:33N 29°47' W 095°05'2 2.2
2014-Jul-21 04:33N 29°45' W 095°06'0 0.0
2014-Jul-21 03:33N 29°45' W 095°06'0 0.0
2014-Jul-21 02:33N 29°45' W 095°06'0 0.0
2014-Jul-21 01:33N 29°45' W 095°06'0 0.0
2014-Jul-21 00:33N 29°45' W 095°06'0 0.0
2014-Jul-20 23:34N 29°45' W 095°06'3 3.1
2014-Jul-20 22:34N 29°47' W 095°04'1 0.7
2014-Jul-20 21:33N 29°47' W 095°05'1 0.8
2014-Jul-20 20:33N 29°47' W 095°04'0 0.0
2014-Jul-20 19:33N 29°47' W 095°04'0 0.0
2014-Jul-20 18:33N 29°47' W 095°04'0 0.0
2014-Jul-20 17:33N 29°47' W 095°04'0 0.0
2014-Jul-20 16:33N 29°47' W 095°04'0 0.0
2014-Jul-20 15:33N 29°47' W 095°04'  

Dump ship's entire track history